Time;durP1;ratioP1;P1;durP2;ratioP2;P2;SDS_P1;SDS_P2;PMS_P1;PMS_P2;Temp;Humidity;BMP_temperature;BMP_pressure;BME280_temperature;BME280_humidity;BME280_pressure;Samples;Min_cycle;Max_cycle;Signal;HPM_P1;HPM_P2
2021/07/02 00:00:39;;;;;;;2.55;2.35;;;;;;;;;;5076502;28;24413;-56
2021/07/02 00:03:04;;;;;;;2.90;2.63;;;;;;;;;;5066515;28;24407;-56
2021/07/02 00:05:29;;;;;;;3.20;3.00;;;;;;;;;;5076167;28;25023;-55
2021/07/02 00:07:54;;;;;;;3.10;2.90;;;;;;;;;;5079810;28;24537;-55
2021/07/02 00:10:19;;;;;;;3.33;3.07;;;;;;;;;;5068768;28;24528;-55
2021/07/02 00:12:45;;;;;;;3.20;2.50;;;;;;;;;;5071975;28;24418;-56
2021/07/02 00:15:11;;;;;;;3.75;3.45;;;;;;;;;;5084696;28;24483;-56
2021/07/02 00:17:36;;;;;;;3.90;3.60;;;;;;;;;;5085095;28;24829;-56
2021/07/02 00:20:02;;;;;;;4.00;3.30;;;;;;;;;;5076412;28;24956;-56
2021/07/02 00:22:27;;;;;;;4.00;3.70;;;;;;;;;;5067339;28;24513;-56
2021/07/02 00:24:52;;;;;;;3.90;3.60;;;;;;;;;;5075809;28;24459;-56
2021/07/02 00:27:17;;;;;;;4.10;3.70;;;;;;;;;;5082589;28;24454;-56
2021/07/02 00:29:43;;;;;;;3.90;3.60;;;;;;;;;;5072079;28;24483;-56
2021/07/02 00:32:08;;;;;;;3.60;3.30;;;;;;;;;;5077383;28;24987;-56
2021/07/02 00:34:33;;;;;;;3.97;3.57;;;;;;;;;;5064886;28;25067;-57
2021/07/02 00:36:58;;;;;;;3.80;3.50;;;;;;;;;;5070467;28;24426;-56
2021/07/02 00:39:23;;;;;;;3.40;3.20;;;;;;;;;;5067685;28;24411;-57
2021/07/02 00:41:49;;;;;;;3.90;3.50;;;;;;;;;;5079859;28;24472;-56
2021/07/02 00:44:14;;;;;;;3.95;3.65;;;;;;;;;;5082996;28;24488;-55
2021/07/02 00:46:39;;;;;;;3.53;3.30;;;;;;;;;;5083535;28;24474;-55
2021/07/02 00:49:04;;;;;;;3.70;3.40;;;;;;;;;;5072139;28;24960;-55
2021/07/02 00:51:31;;;;;;;4.30;3.70;;;;;;;;;;5070662;28;25179;-56
2021/07/02 00:53:56;;;;;;;3.80;3.50;;;;;;;;;;5076428;28;24462;-56
2021/07/02 00:56:21;;;;;;;4.63;4.23;;;;;;;;;;5086173;28;24696;-56
2021/07/02 00:58:46;;;;;;;3.73;3.43;;;;;;;;;;5070576;28;25164;-56
2021/07/02 01:01:18;;;;;;;4.18;3.88;;;;;;;;;;5076127;28;24983;-56
2021/07/02 01:03:44;;;;;;;4.22;3.47;;;;;;;;;;5082053;28;24417;-57
2021/07/02 01:06:09;;;;;;;9.82;3.90;;;;;;;;;;5072820;28;25222;-56
2021/07/02 01:08:35;;;;;;;4.10;3.80;;;;;;;;;;5078406;28;24867;-56
2021/07/02 01:11:00;;;;;;;4.10;3.70;;;;;;;;;;5068023;28;24912;-56
2021/07/02 01:13:25;;;;;;;3.83;3.53;;;;;;;;;;5081618;28;24991;-56
2021/07/02 01:15:53;;;;;;;4.10;3.60;;;;;;;;;;5086102;28;24407;-56
2021/07/02 01:18:19;;;;;;;3.58;3.28;;;;;;;;;;5076389;28;24506;-56
2021/07/02 01:20:46;;;;;;;3.60;3.30;;;;;;;;;;5077002;28;24573;-56
2021/07/02 01:23:11;;;;;;;4.13;3.72;;;;;;;;;;5076074;28;24433;-56
2021/07/02 01:25:37;;;;;;;3.50;3.20;;;;;;;;;;5076669;28;24957;-56
2021/07/02 01:28:02;;;;;;;3.30;3.10;;;;;;;;;;5066981;28;24553;-56
2021/07/02 01:30:27;;;;;;;3.42;3.22;;;;;;;;;;5072497;28;24419;-56
2021/07/02 01:32:53;;;;;;;3.60;3.10;;;;;;;;;;5071956;28;24490;-56
2021/07/02 01:35:18;;;;;;;3.60;3.30;;;;;;;;;;5082687;28;25143;-56
2021/07/02 01:37:44;;;;;;;4.13;3.73;;;;;;;;;;5068019;28;24474;-56
2021/07/02 01:40:09;;;;;;;3.90;3.60;;;;;;;;;;5069874;28;24383;-56
2021/07/02 01:42:35;;;;;;;3.90;3.60;;;;;;;;;;5080411;28;24417;-56
2021/07/02 01:45:00;;;;;;;4.47;3.90;;;;;;;;;;5080142;28;24931;-56
2021/07/02 01:47:25;;;;;;;3.67;3.38;;;;;;;;;;5082536;28;24788;-56
2021/07/02 01:49:50;;;;;;;3.90;3.50;;;;;;;;;;5080279;28;24403;-56
2021/07/02 01:52:16;;;;;;;3.70;3.40;;;;;;;;;;5079390;28;24501;-57
2021/07/02 01:54:41;;;;;;;4.25;3.85;;;;;;;;;;5079743;28;24475;-56
2021/07/02 01:57:08;;;;;;;4.20;3.80;;;;;;;;;;5069116;28;24959;-56
2021/07/02 01:59:33;;;;;;;4.40;4.00;;;;;;;;;;5073830;28;24419;-56
2021/07/02 02:01:58;;;;;;;4.03;3.63;;;;;;;;;;5074129;28;24820;-56
2021/07/02 02:04:23;;;;;;;4.40;4.00;;;;;;;;;;5081953;28;24503;-56
2021/07/02 02:06:48;;;;;;;4.00;3.70;;;;;;;;;;5079505;28;24487;-56
2021/07/02 02:09:13;;;;;;;4.20;3.80;;;;;;;;;;5071227;28;24992;-56
2021/07/02 02:11:39;;;;;;;5.07;4.40;;;;;;;;;;5089462;28;24390;-56
2021/07/02 02:14:10;;;;;;;4.70;4.30;;;;;;;;;;5085499;28;24499;-56
2021/07/02 02:16:35;;;;;;;6.05;5.00;;;;;;;;;;5075808;28;24919;-56
2021/07/02 02:19:00;;;;;;;4.60;4.20;;;;;;;;;;5066718;28;24489;-56
2021/07/02 02:21:25;;;;;;;5.00;4.50;;;;;;;;;;5069409;28;24418;-57
2021/07/02 02:23:50;;;;;;;5.13;4.57;;;;;;;;;;5072565;28;24411;-57
2021/07/02 02:26:15;;;;;;;4.80;4.40;;;;;;;;;;5069829;28;24990;-56
2021/07/02 02:28:40;;;;;;;4.80;4.30;;;;;;;;;;5072463;28;24421;-56
2021/07/02 02:31:06;;;;;;;5.20;4.23;;;;;;;;;;5087652;28;24994;-56
2021/07/02 02:33:31;;;;;;;4.72;4.32;;;;;;;;;;5082923;28;24403;-56
2021/07/02 02:35:56;;;;;;;5.00;4.60;;;;;;;;;;5068481;28;24464;-56
2021/07/02 02:38:21;;;;;;;4.80;4.30;;;;;;;;;;5068351;28;24410;-56
2021/07/02 02:40:46;;;;;;;5.13;4.70;;;;;;;;;;5078052;28;24479;-56
2021/07/02 02:43:11;;;;;;;4.57;4.18;;;;;;;;;;5078135;28;24422;-56
2021/07/02 02:45:36;;;;;;;4.47;4.07;;;;;;;;;;5070186;28;24967;-56
2021/07/02 02:48:02;;;;;;;4.28;3.88;;;;;;;;;;5085551;28;24568;-55
2021/07/02 02:50:27;;;;;;;5.03;4.20;;;;;;;;;;5080284;28;24418;-56
2021/07/02 02:52:52;;;;;;;4.37;3.97;;;;;;;;;;5079962;28;24434;-56
2021/07/02 02:55:17;;;;;;;4.10;3.70;;;;;;;;;;5084646;28;24438;-56
2021/07/02 02:57:42;;;;;;;3.93;3.63;;;;;;;;;;5081039;28;24423;-56
2021/07/02 03:00:09;;;;;;;3.80;3.50;;;;;;;;;;5081540;28;24495;-56
2021/07/02 03:02:34;;;;;;;3.00;2.80;;;;;;;;;;5077118;28;24398;-56
2021/07/02 03:04:59;;;;;;;4.00;3.60;;;;;;;;;;5066706;28;24402;-56
2021/07/02 03:07:24;;;;;;;3.70;3.33;;;;;;;;;;5077583;28;24418;-56
2021/07/02 03:09:49;;;;;;;3.85;3.50;;;;;;;;;;5079428;28;24422;-56
2021/07/02 03:12:14;;;;;;;4.82;3.53;;;;;;;;;;5079200;28;24776;-56
2021/07/02 03:14:39;;;;;;;3.73;3.40;;;;;;;;;;5065643;28;24458;-56
2021/07/02 03:17:05;;;;;;;3.03;2.83;;;;;;;;;;5079937;28;24398;-59
2021/07/02 03:19:30;;;;;;;3.97;3.57;;;;;;;;;;5082180;28;24758;-56
2021/07/02 03:21:55;;;;;;;3.38;3.08;;;;;;;;;;5073739;28;24437;-56
2021/07/02 03:24:20;;;;;;;4.10;3.60;;;;;;;;;;5080365;28;24418;-57
2021/07/02 03:26:45;;;;;;;3.10;2.90;;;;;;;;;;5079249;28;24415;-57
2021/07/02 03:29:11;;;;;;;5.10;3.97;;;;;;;;;;5086387;28;24539;-58
2021/07/02 03:31:36;;;;;;;4.10;3.70;;;;;;;;;;5076667;28;24440;-57
2021/07/02 03:34:02;;;;;;;4.10;3.80;;;;;;;;;;5069992;28;24491;-56
2021/07/02 03:36:27;;;;;;;4.37;3.97;;;;;;;;;;5081153;28;24924;-57
2021/07/02 03:38:52;;;;;;;4.50;4.10;;;;;;;;;;5080719;28;24407;-56
2021/07/02 03:41:17;;;;;;;3.83;3.10;;;;;;;;;;5064635;28;24395;-56
2021/07/02 03:43:43;;;;;;;3.70;3.40;;;;;;;;;;5072417;28;24459;-56
2021/07/02 03:46:08;;;;;;;3.40;3.10;;;;;;;;;;5076320;28;24425;-56
2021/07/02 03:48:33;;;;;;;2.80;2.60;;;;;;;;;;5064504;28;25128;-56
2021/07/02 03:50:58;;;;;;;3.70;2.83;;;;;;;;;;5067437;28;24435;-56
2021/07/02 03:53:23;;;;;;;2.90;2.60;;;;;;;;;;5076630;28;24960;-56
2021/07/02 03:55:49;;;;;;;2.00;1.90;;;;;;;;;;5062679;28;24596;-56
2021/07/02 03:58:14;;;;;;;2.03;1.90;;;;;;;;;;5065481;28;24411;-56
2021/07/02 04:00:39;;;;;;;1.87;1.77;;;;;;;;;;5080035;28;24989;-56
2021/07/02 04:03:04;;;;;;;1.70;1.60;;;;;;;;;;5084711;28;24406;-56
2021/07/02 04:05:29;;;;;;;1.43;1.33;;;;;;;;;;5067564;28;25089;-56
2021/07/02 04:07:54;;;;;;;1.80;1.70;;;;;;;;;;5074938;28;24496;-56
2021/07/02 04:10:20;;;;;;;1.80;1.70;;;;;;;;;;5072902;28;24440;-56
2021/07/02 04:12:45;;;;;;;1.90;1.80;;;;;;;;;;5071651;28;24732;-56
2021/07/02 04:15:10;;;;;;;3.10;2.30;;;;;;;;;;5067315;28;24426;-58
2021/07/02 04:17:38;;;;;;;2.00;1.80;;;;;;;;;;5066571;28;24422;-58
2021/07/02 04:20:10;;;;;;;1.60;1.50;;;;;;;;;;5067221;28;24383;-56
2021/07/02 04:22:36;;;;;;;1.90;1.80;;;;;;;;;;5073025;28;24417;-56
2021/07/02 04:25:02;;;;;;;1.90;1.70;;;;;;;;;;5084465;28;24507;-56
2021/07/02 04:27:27;;;;;;;2.38;1.70;;;;;;;;;;5075454;28;24519;-56
2021/07/02 04:29:52;;;;;;;2.08;1.88;;;;;;;;;;5075085;28;24414;-57
2021/07/02 04:32:18;;;;;;;1.40;1.30;;;;;;;;;;5086904;28;25005;-58
2021/07/02 04:34:43;;;;;;;1.90;1.70;;;;;;;;;;5066729;28;24437;-57
2021/07/02 04:37:08;;;;;;;1.80;1.70;;;;;;;;;;5078279;28;24510;-57
2021/07/02 04:39:33;;;;;;;2.77;2.10;;;;;;;;;;5084548;28;24446;-58
2021/07/02 04:41:58;;;;;;;1.90;1.80;;;;;;;;;;5080249;28;24403;-58
2021/07/02 04:44:23;;;;;;;3.42;1.95;;;;;;;;;;5071832;28;24812;-58
2021/07/02 04:46:49;;;;;;;2.42;2.22;;;;;;;;;;5086667;28;24989;-58
2021/07/02 04:49:14;;;;;;;2.50;2.13;;;;;;;;;;5082674;28;24413;-58
2021/07/02 04:51:39;;;;;;;1.90;1.80;;;;;;;;;;5085333;28;24797;-59
2021/07/02 04:54:04;;;;;;;2.58;1.60;;;;;;;;;;5068869;28;24474;-58
2021/07/02 04:56:29;;;;;;;1.90;1.47;;;;;;;;;;5067340;28;24464;-55
2021/07/02 04:58:55;;;;;;;1.50;1.40;;;;;;;;;;5066428;28;24472;-58
2021/07/02 05:01:21;;;;;;;1.50;1.40;;;;;;;;;;5068753;28;24411;-58
2021/07/02 05:03:46;;;;;;;1.85;1.63;;;;;;;;;;5069878;28;24464;-58
2021/07/02 05:06:11;;;;;;;1.50;1.40;;;;;;;;;;5077626;28;24414;-58
2021/07/02 05:08:38;;;;;;;1.40;1.30;;;;;;;;;;5071831;28;24517;-59
2021/07/02 05:11:03;;;;;;;1.60;1.50;;;;;;;;;;5077963;28;24823;-58
2021/07/02 05:13:28;;;;;;;1.90;1.50;;;;;;;;;;5075178;28;24468;-58
2021/07/02 05:15:53;;;;;;;1.20;1.10;;;;;;;;;;5070744;28;24441;-58
2021/07/02 05:18:19;;;;;;;1.50;1.40;;;;;;;;;;5069957;28;24403;-58
2021/07/02 05:20:45;;;;;;;1.30;1.20;;;;;;;;;;5084144;28;24441;-58
2021/07/02 05:23:10;;;;;;;1.13;1.00;;;;;;;;;;5081899;28;24421;-58
2021/07/02 05:25:36;;;;;;;1.40;1.30;;;;;;;;;;5079496;28;24427;-58
2021/07/02 05:28:02;;;;;;;1.50;1.40;;;;;;;;;;5079408;28;24978;-58
2021/07/02 05:30:27;;;;;;;1.30;1.17;;;;;;;;;;5076929;28;24440;-58
2021/07/02 05:32:53;;;;;;;1.60;1.20;;;;;;;;;;5067467;28;24430;-58
2021/07/02 05:35:18;;;;;;;2.15;1.73;;;;;;;;;;5065807;28;24430;-58
2021/07/02 05:37:43;;;;;;;1.40;1.30;;;;;;;;;;5065693;28;24480;-58
2021/07/02 05:40:09;;;;;;;1.50;1.10;;;;;;;;;;5082188;28;24500;-58
2021/07/02 05:42:34;;;;;;;0.93;0.90;;;;;;;;;;5080076;28;24469;-58
2021/07/02 05:45:00;;;;;;;1.23;1.10;;;;;;;;;;5071381;28;24744;-58
2021/07/02 05:47:25;;;;;;;1.40;1.00;;;;;;;;;;5068204;28;24414;-58
2021/07/02 05:49:50;;;;;;;0.80;0.80;;;;;;;;;;5079551;28;24443;-57
2021/07/02 05:52:15;;;;;;;1.20;0.90;;;;;;;;;;5076999;28;24521;-59
2021/07/02 05:54:40;;;;;;;1.25;0.80;;;;;;;;;;5069528;28;24984;-59
2021/07/02 05:57:05;;;;;;;1.00;0.90;;;;;;;;;;5081136;28;24475;-59
2021/07/02 05:59:30;;;;;;;0.80;0.80;;;;;;;;;;5068784;28;24430;-59
2021/07/02 06:01:56;;;;;;;1.42;0.88;;;;;;;;;;5072369;28;24406;-59
2021/07/02 06:04:21;;;;;;;1.20;1.05;;;;;;;;;;5075493;28;24506;-58
2021/07/02 06:06:48;;;;;;;1.15;1.10;;;;;;;;;;5081353;28;25183;-59
2021/07/02 06:09:13;;;;;;;1.50;0.80;;;;;;;;;;5076148;28;24972;-58
2021/07/02 06:11:38;;;;;;;1.60;1.00;;;;;;;;;;5078615;28;24444;-59
2021/07/02 06:14:03;;;;;;;1.00;0.80;;;;;;;;;;5070809;28;24414;-59
2021/07/02 06:16:28;;;;;;;2.30;1.30;;;;;;;;;;5070223;28;24438;-59
2021/07/02 06:18:54;;;;;;;0.97;0.97;;;;;;;;;;5076698;28;24414;-59
2021/07/02 06:21:19;;;;;;;1.10;0.90;;;;;;;;;;5068880;28;24405;-59
2021/07/02 06:23:45;;;;;;;1.60;1.13;;;;;;;;;;5068000;28;24516;-60
2021/07/02 06:26:10;;;;;;;0.80;0.80;;;;;;;;;;5074922;28;24410;-59
2021/07/02 06:28:37;;;;;;;1.00;0.90;;;;;;;;;;5074893;28;24516;-60
2021/07/02 06:31:02;;;;;;;1.10;1.00;;;;;;;;;;5071489;28;24468;-59
2021/07/02 06:33:27;;;;;;;1.40;1.00;;;;;;;;;;5080397;28;24418;-60
2021/07/02 06:36:02;;;;;;;1.40;1.30;;;;;;;;;;5081086;28;24437;-60
2021/07/02 06:38:28;;;;;;;1.30;1.20;;;;;;;;;;5056921;28;24495;-59
2021/07/02 06:40:53;;;;;;;1.20;1.10;;;;;;;;;;5071806;28;24442;-60
2021/07/02 06:43:18;;;;;;;1.33;1.23;;;;;;;;;;5067050;28;24441;-58
2021/07/02 06:45:43;;;;;;;1.40;1.00;;;;;;;;;;5078689;28;24425;-58
2021/07/02 06:48:09;;;;;;;1.70;1.20;;;;;;;;;;5082419;28;24429;-59
2021/07/02 06:50:36;;;;;;;1.55;1.13;;;;;;;;;;5071295;28;24529;-58
2021/07/02 06:53:03;;;;;;;1.20;1.10;;;;;;;;;;5072404;28;24422;-58
2021/07/02 06:55:28;;;;;;;2.13;1.45;;;;;;;;;;5082164;28;24433;-59
2021/07/02 06:57:54;;;;;;;1.20;1.10;;;;;;;;;;5085224;28;24402;-59
2021/07/02 07:00:19;;;;;;;1.30;1.17;;;;;;;;;;5085221;28;24391;-59
2021/07/02 07:02:45;;;;;;;1.17;1.07;;;;;;;;;;5066186;28;24889;-59
2021/07/02 07:05:10;;;;;;;1.10;1.00;;;;;;;;;;5082763;28;25045;-60
2021/07/02 07:07:36;;;;;;;1.13;1.10;;;;;;;;;;5084965;28;24409;-59
2021/07/02 07:10:02;;;;;;;1.67;1.20;;;;;;;;;;5074078;28;24425;-59
2021/07/02 07:12:27;;;;;;;1.50;1.40;;;;;;;;;;5068151;28;24462;-59
2021/07/02 07:14:52;;;;;;;1.80;1.50;;;;;;;;;;5064883;28;24441;-59
2021/07/02 07:17:17;;;;;;;1.83;1.60;;;;;;;;;;5064525;28;24407;-59
2021/07/02 07:19:43;;;;;;;1.90;1.80;;;;;;;;;;5063921;28;24383;-60
2021/07/02 07:22:08;;;;;;;1.98;1.88;;;;;;;;;;5067789;28;24467;-59
2021/07/02 07:24:33;;;;;;;2.00;1.90;;;;;;;;;;5087316;28;24418;-59
2021/07/02 07:26:59;;;;;;;2.00;1.90;;;;;;;;;;5087963;28;24510;-59
2021/07/02 07:29:24;;;;;;;2.73;2.40;;;;;;;;;;5087711;28;24737;-59
2021/07/02 07:31:49;;;;;;;3.00;2.70;;;;;;;;;;5087921;28;24501;-59
2021/07/02 07:34:23;;;;;;;3.07;2.87;;;;;;;;;;5082658;28;24526;-59
2021/07/02 07:36:53;;;;;;;3.58;3.28;;;;;;;;;;5087614;28;24451;-59
2021/07/02 07:39:18;;;;;;;3.92;3.63;;;;;;;;;;5087736;28;24447;-60
2021/07/02 07:41:43;;;;;;;4.68;4.20;;;;;;;;;;5086510;28;24905;-60
2021/07/02 07:44:08;;;;;;;4.07;3.78;;;;;;;;;;5084109;28;24442;-60
2021/07/02 07:46:33;;;;;;;6.78;5.57;;;;;;;;;;5086074;28;24405;-60
2021/07/02 07:48:59;;;;;;;6.13;5.55;;;;;;;;;;5087279;28;24836;-60
2021/07/02 07:53:52;;;;;;;7.45;6.85;;;;;;;;;;5083898;28;24520;-61
2021/07/02 07:56:17;;;;;;;8.35;7.55;;;;;;;;;;5087210;28;24418;-61
2021/07/02 07:58:42;;;;;;;10.80;9.80;;;;;;;;;;5078771;28;24423;-61
2021/07/02 08:01:09;;;;;;;11.80;10.63;;;;;;;;;;5078208;28;24417;-60
2021/07/02 08:03:34;;;;;;;14.90;13.30;;;;;;;;;;5078659;28;25100;-60
2021/07/02 08:05:59;;;;;;;18.30;15.65;;;;;;;;;;5078379;28;24522;-60
2021/07/02 08:08:24;;;;;;;17.55;15.70;;;;;;;;;;5069716;28;24433;-60
2021/07/02 08:10:50;;;;;;;17.80;15.90;;;;;;;;;;5068202;28;24417;-59
2021/07/02 08:13:15;;;;;;;17.43;15.63;;;;;;;;;;5071415;28;24410;-60
2021/07/02 08:15:40;;;;;;;16.70;15.00;;;;;;;;;;5074661;28;24423;-60
2021/07/02 08:18:05;;;;;;;23.23;18.85;;;;;;;;;;5067967;28;24417;-60
2021/07/02 08:20:31;;;;;;;19.90;17.80;;;;;;;;;;5078208;28;24429;-60
2021/07/02 08:22:56;;;;;;;19.90;17.33;;;;;;;;;;5077737;28;25245;-59
2021/07/02 08:25:21;;;;;;;20.83;18.65;;;;;;;;;;5075499;28;24446;-60
2021/07/02 08:30:30;;;;;;;25.30;20.27;;;;;;;;;;5077664;28;24392;-60
2021/07/02 08:32:56;;;;;;;23.60;20.98;;;;;;;;;;5079422;28;24406;-60
2021/07/02 08:35:22;;;;;;;22.05;19.60;;;;;;;;;;5077404;28;24963;-59
2021/07/02 08:37:48;;;;;;;25.53;21.50;;;;;;;;;;5065427;28;24557;-59
2021/07/02 08:40:14;;;;;;;24.45;21.63;;;;;;;;;;5069000;28;24425;-61
2021/07/02 08:42:39;;;;;;;25.10;21.37;;;;;;;;;;5062240;28;24414;-60
2021/07/02 08:45:04;;;;;;;30.90;24.03;;;;;;;;;;5067792;28;24430;-59
2021/07/02 08:47:29;;;;;;;26.63;23.40;;;;;;;;;;5071403;28;24419;-60
2021/07/02 08:49:55;;;;;;;24.98;21.85;;;;;;;;;;5067177;28;24465;-59
2021/07/02 08:52:20;;;;;;;24.63;21.35;;;;;;;;;;5072122;28;24807;-59
2021/07/02 08:54:45;;;;;;;26.13;21.30;;;;;;;;;;5075329;28;24434;-59
2021/07/02 08:57:12;;;;;;;25.98;22.48;;;;;;;;;;5066824;28;22394;-59
2021/07/02 08:59:37;;;;;;;24.70;20.73;;;;;;;;;;5061756;28;24411;-59
2021/07/02 09:02:02;;;;;;;23.95;20.77;;;;;;;;;;5071035;28;24430;-59
2021/07/02 09:04:30;;;;;;;24.00;20.50;;;;;;;;;;5071274;28;24487;-59
2021/07/02 09:07:01;;;;;;;21.75;18.83;;;;;;;;;;5079310;28;24411;-59
2021/07/02 09:09:45;;;;;;;23.08;19.48;;;;;;;;;;5068338;28;24407;-59
2021/07/02 09:12:10;;;;;;;25.27;21.48;;;;;;;;;;5065631;28;24417;-59
2021/07/02 09:14:35;;;;;;;24.40;21.10;;;;;;;;;;5074122;28;24717;-59
2021/07/02 09:17:10;;;;;;;25.30;22.60;;;;;;;;;;5070705;28;24506;-59
2021/07/02 09:19:36;;;;;;;33.38;25.17;;;;;;;;;;5070358;28;24463;-59
2021/07/02 09:22:15;;;;;;;28.37;24.53;;;;;;;;;;5074512;28;24414;-59
2021/07/02 09:24:43;;;;;;;28.55;24.13;;;;;;;;;;5071491;28;24423;-59
2021/07/02 09:27:22;;;;;;;38.63;28.20;;;;;;;;;;5066778;28;24967;-59
2021/07/02 09:30:03;;;;;;;28.05;25.00;;;;;;;;;;5074109;28;24418;-59
2021/07/02 09:32:29;;;;;;;30.38;26.02;;;;;;;;;;5063162;28;25021;-59
2021/07/02 09:34:55;;;;;;;31.75;26.45;;;;;;;;;;5078131;28;24552;-59
2021/07/02 09:37:20;;;;;;;31.27;26.55;;;;;;;;;;5072932;28;25285;-59
2021/07/02 09:39:45;;;;;;;34.83;28.13;;;;;;;;;;5065155;28;24528;-59
2021/07/02 09:42:27;;;;;;;29.90;26.42;;;;;;;;;;5063496;28;24433;-59
2021/07/02 09:45:02;;;;;;;32.80;29.20;;;;;;;;;;5063636;28;24434;-59
2021/07/02 09:47:28;;;;;;;30.30;27.00;;;;;;;;;;5074941;28;24532;-59
2021/07/02 09:50:09;;;;;;;30.60;27.30;;;;;;;;;;5076488;28;24948;-59
2021/07/02 09:52:40;;;;;;;33.85;28.05;;;;;;;;;;5076755;28;24426;-58
2021/07/02 09:55:05;;;;;;;34.17;28.50;;;;;;;;;;5067456;28;24633;-58
2021/07/02 09:57:30;;;;;;;31.63;27.30;;;;;;;;;;5068109;28;24493;-59
2021/07/02 10:00:04;;;;;;;34.33;27.77;;;;;;;;;;5079392;28;24478;-59
2021/07/02 10:02:29;;;;;;;30.10;25.23;;;;;;;;;;5081646;28;24468;-59
2021/07/02 10:04:57;;;;;;;28.08;23.00;;;;;;;;;;5082662;28;24819;-58
2021/07/02 10:07:22;;;;;;;30.23;26.90;;;;;;;;;;5078641;28;24449;-59
2021/07/02 10:09:47;;;;;;;25.58;22.90;;;;;;;;;;5072231;28;24431;-59
2021/07/02 10:12:13;;;;;;;24.73;22.27;;;;;;;;;;5087180;28;24448;-59
2021/07/02 10:14:38;;;;;;;24.33;21.73;;;;;;;;;;5075381;28;24789;-59
2021/07/02 10:17:03;;;;;;;23.03;20.60;;;;;;;;;;5077818;28;24414;-59
2021/07/02 10:19:29;;;;;;;20.83;18.73;;;;;;;;;;5071820;28;24499;-59
2021/07/02 10:21:54;;;;;;;23.20;20.70;;;;;;;;;;5069844;28;24411;-59
2021/07/02 10:24:19;;;;;;;20.37;18.47;;;;;;;;;;5073719;28;24421;-59
2021/07/02 10:26:47;;;;;;;19.07;17.10;;;;;;;;;;5079226;28;25415;-59
2021/07/02 10:29:12;;;;;;;17.65;16.00;;;;;;;;;;5085849;28;25074;-59
2021/07/02 10:31:37;;;;;;;18.17;16.27;;;;;;;;;;5071509;28;24411;-59
2021/07/02 10:34:03;;;;;;;17.70;16.00;;;;;;;;;;5075205;28;24422;-59
2021/07/02 10:36:32;;;;;;;21.52;19.33;;;;;;;;;;5073599;28;24413;-59
2021/07/02 10:38:57;;;;;;;20.70;18.65;;;;;;;;;;5075176;28;24453;-59
2021/07/02 10:41:25;;;;;;;21.27;19.13;;;;;;;;;;5084813;28;24594;-59
2021/07/02 10:44:03;;;;;;;20.50;18.50;;;;;;;;;;5076022;28;24418;-59
2021/07/02 10:46:30;;;;;;;19.88;18.15;;;;;;;;;;5079756;28;24421;-59
2021/07/02 10:48:56;;;;;;;20.25;18.25;;;;;;;;;;5079471;28;24429;-59
2021/07/02 10:51:34;;;;;;;20.90;18.80;;;;;;;;;;5081413;28;24413;-59
2021/07/02 10:54:15;;;;;;;20.48;18.45;;;;;;;;;;5080784;28;24430;-60
2021/07/02 10:56:44;;;;;;;17.50;15.90;;;;;;;;;;5073714;28;24426;-59
2021/07/02 10:59:09;;;;;;;18.33;16.42;;;;;;;;;;5069778;28;25012;-60
2021/07/02 11:01:35;;;;;;;16.88;15.20;;;;;;;;;;5075633;28;24403;-59
2021/07/02 11:04:18;;;;;;;17.00;15.50;;;;;;;;;;5072990;28;24453;-59
2021/07/02 11:06:44;;;;;;;17.65;15.98;;;;;;;;;;5085333;28;24421;-59
2021/07/02 11:09:09;;;;;;;17.63;16.13;;;;;;;;;;5079013;28;24851;-60
2021/07/02 11:11:53;;;;;;;16.73;15.23;;;;;;;;;;5074173;28;24464;-59
2021/07/02 11:14:20;;;;;;;17.03;15.33;;;;;;;;;;5086334;28;24502;-59
2021/07/02 11:17:03;;;;;;;19.73;17.80;;;;;;;;;;5085435;28;24822;-59
2021/07/02 11:19:29;;;;;;;15.88;14.48;;;;;;;;;;5070312;28;24508;-59
2021/07/02 11:22:12;;;;;;;19.25;17.42;;;;;;;;;;5064322;28;24417;-59
2021/07/02 11:24:58;;;;;;;17.63;15.93;;;;;;;;;;5064186;28;24397;-60
2021/07/02 11:27:47;;;;;;;18.80;16.90;;;;;;;;;;5073450;28;24434;-60
2021/07/02 11:30:33;;;;;;;18.40;16.70;;;;;;;;;;5070612;28;25325;-59
2021/07/02 11:33:00;;;;;;;16.60;14.73;;;;;;;;;;5076121;28;24535;-60
2021/07/02 11:35:32;;;;;;;14.97;13.57;;;;;;;;;;5072408;28;24524;-60
2021/07/02 11:38:11;;;;;;;16.50;15.00;;;;;;;;;;5064556;28;24426;-58
2021/07/02 11:40:53;;;;;;;14.65;13.32;;;;;;;;;;5073922;28;24418;-60
2021/07/02 11:43:28;;;;;;;15.40;13.98;;;;;;;;;;5070939;28;24480;-58
2021/07/02 11:45:54;;;;;;;13.80;12.57;;;;;;;;;;5082428;28;24421;-58
2021/07/02 11:48:19;;;;;;;14.27;12.98;;;;;;;;;;5071099;28;24431;-59
2021/07/02 11:50:45;;;;;;;13.07;11.87;;;;;;;;;;5081687;28;24422;-58
2021/07/02 11:53:31;;;;;;;13.77;12.48;;;;;;;;;;5076330;28;24410;-59
2021/07/02 11:55:57;;;;;;;12.00;11.00;;;;;;;;;;5070493;28;24896;-59
2021/07/02 11:58:22;;;;;;;11.18;10.27;;;;;;;;;;5068021;28;24913;-58
2021/07/02 12:00:48;;;;;;;10.70;9.80;;;;;;;;;;5078427;28;24433;-59
2021/07/02 12:03:16;;;;;;;10.63;9.70;;;;;;;;;;5076368;28;24821;-59
2021/07/02 12:05:51;;;;;;;12.40;11.30;;;;;;;;;;5068789;28;24408;-59
2021/07/02 12:08:18;;;;;;;13.82;12.43;;;;;;;;;;5068969;28;24439;-59
2021/07/02 12:10:43;;;;;;;13.02;11.82;;;;;;;;;;5087075;28;24505;-59
2021/07/02 12:13:08;;;;;;;11.30;10.30;;;;;;;;;;5082296;28;24553;-59
2021/07/02 12:15:35;;;;;;;14.95;13.48;;;;;;;;;;5066310;28;24430;-59
2021/07/02 12:18:04;;;;;;;12.85;11.55;;;;;;;;;;5082777;28;24433;-59
2021/07/02 12:20:29;;;;;;;13.47;12.27;;;;;;;;;;5084694;28;24477;-59
2021/07/02 12:23:05;;;;;;;11.97;10.77;;;;;;;;;;5086298;28;24577;-59
2021/07/02 12:25:30;;;;;;;11.25;10.15;;;;;;;;;;5085931;28;24421;-59
2021/07/02 12:27:59;;;;;;;11.45;10.45;;;;;;;;;;5072626;28;24415;-58
2021/07/02 12:30:25;;;;;;;10.95;10.05;;;;;;;;;;5069739;28;24469;-59
2021/07/02 12:32:51;;;;;;;10.30;9.40;;;;;;;;;;5072183;28;25023;-59
2021/07/02 12:35:16;;;;;;;10.80;9.90;;;;;;;;;;5077053;28;24458;-57
2021/07/02 12:37:41;;;;;;;10.10;9.10;;;;;;;;;;5080886;28;24568;-58
2021/07/02 12:40:07;;;;;;;12.40;11.27;;;;;;;;;;5074841;28;24430;-58
2021/07/02 12:42:33;;;;;;;9.23;8.52;;;;;;;;;;5070440;28;24553;-57
2021/07/02 12:44:59;;;;;;;11.05;10.05;;;;;;;;;;5069790;28;24454;-58
2021/07/02 12:47:28;;;;;;;11.00;10.00;;;;;;;;;;5074994;28;24509;-57
2021/07/02 12:50:05;;;;;;;10.70;9.80;;;;;;;;;;5073983;28;24430;-58
2021/07/02 12:55:14;;;;;;;9.55;8.65;;;;;;;;;;5065537;28;24840;-57
2021/07/02 12:57:54;;;;;;;10.10;9.20;;;;;;;;;;5082897;28;25029;-57
2021/07/02 13:00:20;;;;;;;9.40;8.60;;;;;;;;;;5085738;28;24453;-58
2021/07/02 13:02:45;;;;;;;9.17;8.37;;;;;;;;;;5069970;28;24460;-57
2021/07/02 13:05:12;;;;;;;8.75;8.00;;;;;;;;;;5068866;28;24510;-58
2021/07/02 13:07:43;;;;;;;10.52;9.52;;;;;;;;;;5071067;28;24418;-58
2021/07/02 13:10:10;;;;;;;10.10;9.20;;;;;;;;;;5073812;28;24521;-58
2021/07/02 13:12:35;;;;;;;10.10;9.30;;;;;;;;;;5069168;28;24438;-57
2021/07/02 13:15:19;;;;;;;9.80;9.00;;;;;;;;;;5066132;28;25342;-56
2021/07/02 13:17:45;;;;;;;10.40;9.40;;;;;;;;;;5068488;28;24414;-57
2021/07/02 13:20:12;;;;;;;9.50;8.50;;;;;;;;;;5082211;28;24422;-56
2021/07/02 13:22:38;;;;;;;10.57;9.68;;;;;;;;;;5083274;28;24429;-57
2021/07/02 13:25:04;;;;;;;9.30;8.45;;;;;;;;;;5072078;28;24415;-57
2021/07/02 13:27:29;;;;;;;8.10;7.40;;;;;;;;;;5070603;28;24476;-56
2021/07/02 13:30:02;;;;;;;8.63;7.93;;;;;;;;;;5077306;28;25125;-56
2021/07/02 13:32:27;;;;;;;9.30;8.50;;;;;;;;;;5081631;28;24462;-57
2021/07/02 13:34:52;;;;;;;9.50;8.70;;;;;;;;;;5072294;28;24485;-57
2021/07/02 13:37:25;;;;;;;8.30;7.60;;;;;;;;;;5076867;28;25002;-58
2021/07/02 13:39:50;;;;;;;9.60;8.70;;;;;;;;;;5069902;28;24411;-57
2021/07/02 13:42:16;;;;;;;11.00;9.23;;;;;;;;;;5069129;28;24426;-57
2021/07/02 13:44:52;;;;;;;9.90;9.00;;;;;;;;;;5081895;28;24983;-56
2021/07/02 13:47:23;;;;;;;10.32;9.43;;;;;;;;;;5071271;28;24422;-58
2021/07/02 13:49:48;;;;;;;9.30;8.60;;;;;;;;;;5081265;28;24997;-58
2021/07/02 13:52:14;;;;;;;10.38;9.48;;;;;;;;;;5073873;28;24418;-59
2021/07/02 13:54:39;;;;;;;10.10;9.30;;;;;;;;;;5069110;28;24801;-57
2021/07/02 13:57:04;;;;;;;10.77;9.87;;;;;;;;;;5083341;28;24453;-56
2021/07/02 13:59:30;;;;;;;10.32;9.50;;;;;;;;;;5074428;28;24429;-57
2021/07/02 14:01:55;;;;;;;9.73;8.93;;;;;;;;;;5085027;28;24418;-57
2021/07/02 14:04:21;;;;;;;11.00;10.20;;;;;;;;;;5087921;28;24939;-56
2021/07/02 14:06:46;;;;;;;10.23;9.32;;;;;;;;;;5082789;28;24517;-57
2021/07/02 14:09:12;;;;;;;10.50;9.60;;;;;;;;;;5087332;28;24769;-57
2021/07/02 14:11:38;;;;;;;10.85;9.85;;;;;;;;;;5085072;28;24533;-57
2021/07/02 14:14:04;;;;;;;10.43;9.52;;;;;;;;;;5075593;28;24410;-56
2021/07/02 14:16:29;;;;;;;10.48;9.57;;;;;;;;;;5073939;28;24875;-57
2021/07/02 14:18:54;;;;;;;9.83;9.03;;;;;;;;;;5081065;28;24428;-58
2021/07/02 14:21:19;;;;;;;9.50;8.60;;;;;;;;;;5086744;28;24429;-57
2021/07/02 14:23:45;;;;;;;9.87;9.07;;;;;;;;;;5077203;28;24399;-57
2021/07/02 14:26:10;;;;;;;9.67;8.77;;;;;;;;;;5079057;28;24517;-56
2021/07/02 14:28:36;;;;;;;9.33;8.53;;;;;;;;;;5080589;28;24626;-57
2021/07/02 14:31:02;;;;;;;8.98;8.27;;;;;;;;;;5079954;28;24448;-57
2021/07/02 14:33:27;;;;;;;9.00;8.20;;;;;;;;;;5081977;28;24971;-56
2021/07/02 14:35:52;;;;;;;8.97;8.27;;;;;;;;;;5081761;28;24747;-56
2021/07/02 14:38:17;;;;;;;8.20;7.50;;;;;;;;;;5082542;28;24590;-57